Main page
METAR-TAF:

METAR-TAF

Airports :

Koné Airport

Koné, New Caledonia

latitude: 21-03-12S, longitude: 164-50-18E, elevation: 7 m

METAR: missing

Time: 05:18 (18:18 UTC)

Forecast

The report was made 1 hour and 18 minutes ago, at 17:00 UTC
Forecast valid from 21 at 18 UTC to 22 at 18 UTC
Wind 6 kt from the East
Visibility 10 km or more
Few clouds at a height of 3000 ft
Scattered clouds at a height of 4000 ft
Becoming
from 22 at 08 UTC to 22 at 10 UTC
Wind 2 kt from variable directions

TAF: NWWD 211700Z 2118/2218 08006KT 9999 FEW030 SCT040 BECMG 2208/2210 VRB02KT

Weather observations and forecasts of more than 4000 airports (METAR and TAF reports).

The available stations are represented by yellow and red dots on the map.

Hover mouse over dot to see the name of the station.

Then click to see weather observations and forecasts.

To change the map : click on the green buttons with a black cross to zoom in, on the green button with a dash to zoom out, or on the green arrows for adjacent maps.


METAR-TAF: